Time;durP1;ratioP1;P1;durP2;ratioP2;P2;SDS_P1;SDS_P2;PMS_P1;PMS_P2;Temp;Humidity;BMP_temperature;BMP_pressure;BME280_temperature;BME280_humidity;BME280_pressure;Samples;Min_cycle;Max_cycle;Signal;HPM_P1;HPM_P2
2022/03/05 00:01:04;;;;;;;;;;;;;;;7.19;50.18;100160.69;4402340;32;19993;-75
2022/03/05 00:03:32;;;;;;;;;;;;;;;6.93;50.88;100160.62;4400216;32;19978;-75
2022/03/05 00:05:59;;;;;;;;;;;;;;;6.98;50.71;100158.22;4399844;32;20002;-74
2022/03/05 00:08:25;;;;;;;;;;;;;;;7.19;50.21;100163.25;4400398;32;20063;-74
2022/03/05 00:10:52;;;;;;;;;;;;;;;7.19;50.31;100163.25;4400163;32;19986;-74
2022/03/05 00:13:19;;;;;;;;;;;;;;;7.23;50.02;100159.97;4407897;32;20298;-75
2022/03/05 00:15:46;;;;;;;;;;;;;;;7.29;49.81;100155.03;4412274;32;20016;-77
2022/03/05 00:18:14;;;;;;;;;;;;;;;7.11;50.36;100160.41;4417165;32;20514;-75
2022/03/05 00:20:42;;;;;;;;;;;;;;;7.10;50.52;100157.78;4423184;32;20462;-74
2022/03/05 00:23:09;;;;;;;;;;;;;;;7.01;50.88;100157.47;4427469;32;19982;-74
2022/03/05 00:25:37;;;;;;;;;;;;;;;6.77;51.86;100163.50;4422891;32;19983;-74
2022/03/05 00:28:03;;;;;;;;;;;;;;;7.05;50.61;100149.00;4416627;32;20016;-74
2022/03/05 00:30:30;;;;;;;;;;;;;;;7.01;51.04;100152.31;4415205;32;20001;-74
2022/03/05 00:32:58;;;;;;;;;;;;;;;7.10;50.41;100157.78;4417860;32;20024;-74
2022/03/05 00:35:26;;;;;;;;;;;;;;;7.09;50.75;100161.19;4422453;32;20000;-74
2022/03/05 00:37:52;;;;;;;;;;;;;;;6.99;50.64;100150.56;4415592;32;20037;-74
2022/03/05 00:40:19;;;;;;;;;;;;;;;6.82;51.02;100155.91;4415903;32;19997;-74
2022/03/05 00:42:46;;;;;;;;;;;;;;;6.96;50.78;100155.59;4428535;32;20037;-74
2022/03/05 00:45:13;;;;;;;;;;;;;;;6.88;51.12;100154.44;4422879;32;19970;-75
2022/03/05 00:47:40;;;;;;;;;;;;;;;6.94;51.27;100152.09;4425463;32;20113;-76
2022/03/05 00:50:07;;;;;;;;;;;;;;;7.20;50.21;100145.28;4417504;32;19982;-75
2022/03/05 00:52:34;;;;;;;;;;;;;;;7.09;49.93;100145.75;4433498;32;19999;-76
2022/03/05 00:55:02;;;;;;;;;;;;;;;7.23;49.28;100144.50;4417333;32;19985;-75
2022/03/05 00:57:28;;;;;;;;;;;;;;;7.24;48.78;100138.53;4422588;32;19990;-76
2022/03/05 00:59:55;;;;;;;;;;;;;;;7.23;48.56;100136.78;4419660;32;20035;-75
2022/03/05 01:02:22;;;;;;;;;;;;;;;7.12;49.44;100135.56;4421365;32;19981;-76
2022/03/05 01:04:49;;;;;;;;;;;;;;;7.16;49.17;100127.09;4422428;32;20499;-75
2022/03/05 01:07:16;;;;;;;;;;;;;;;6.90;50.07;100132.22;4415771;32;19990;-76
2022/03/05 01:09:43;;;;;;;;;;;;;;;7.02;49.58;100133.47;4421696;32;19990;-76
2022/03/05 01:12:10;;;;;;;;;;;;;;;7.08;49.68;100139.69;4418610;32;19977;-76
2022/03/05 01:14:36;;;;;;;;;;;;;;;7.25;48.99;100132.56;4415330;32;19977;-75
2022/03/05 01:17:04;;;;;;;;;;;;;;;6.94;49.76;100128.94;4415618;32;20005;-75
2022/03/05 01:19:31;;;;;;;;;;;;;;;7.04;49.93;100131.81;4415839;32;20065;-76
2022/03/05 01:21:58;;;;;;;;;;;;;;;7.04;50.30;100132.69;4427124;32;20040;-76
2022/03/05 01:24:25;;;;;;;;;;;;;;;6.96;50.45;100137.59;4388947;32;19979;-76
2022/03/05 01:26:52;;;;;;;;;;;;;;;7.10;49.61;100137.19;4385013;32;19998;-76
2022/03/05 01:29:19;;;;;;;;;;;;;;;7.21;49.27;100130.69;4374779;32;20382;-75
2022/03/05 01:31:46;;;;;;;;;;;;;;;6.88;50.28;100131.28;4374503;32;20014;-76
2022/03/05 01:34:13;;;;;;;;;;;;;;;6.82;50.21;100136.22;4370367;32;19983;-75
2022/03/05 01:36:40;;;;;;;;;;;;;;;7.10;49.52;100134.63;4415682;32;20772;-75
2022/03/05 01:39:07;;;;;;;;;;;;;;;6.81;50.25;100129.31;4415319;32;20012;-76
2022/03/05 01:41:34;;;;;;;;;;;;;;;6.80;50.34;100132.72;4415984;32;19994;-75
2022/03/05 01:44:01;;;;;;;;;;;;;;;6.76;50.37;100130.84;4423341;32;19969;-75
2022/03/05 01:46:28;;;;;;;;;;;;;;;6.91;49.73;100126.25;4417126;32;20027;-75
2022/03/05 01:48:54;;;;;;;;;;;;;;;6.80;50.17;100132.72;4423578;32;19985;-75
2022/03/05 01:51:21;;;;;;;;;;;;;;;6.71;50.18;100142.69;4415483;32;20035;-75
2022/03/05 01:53:48;;;;;;;;;;;;;;;6.72;50.45;100134.12;4415530;32;19981;-76
2022/03/05 01:56:15;;;;;;;;;;;;;;;6.71;50.04;100137.53;4415257;32;19993;-75
2022/03/05 01:58:42;;;;;;;;;;;;;;;6.83;49.53;100137.97;4401602;32;20431;-75
2022/03/05 02:01:09;;;;;;;;;;;;;;;6.88;48.95;100141.56;4398354;32;19982;-76
2022/03/05 02:03:37;;;;;;;;;;;;;;;6.95;48.58;100138.38;4406203;32;19992;-76
2022/03/05 02:06:04;;;;;;;;;;;;;;;6.98;48.58;100138.50;4415422;32;19990;-76
2022/03/05 02:08:30;;;;;;;;;;;;;;;6.95;48.55;100143.53;4415534;32;20028;-76
2022/03/05 02:10:57;;;;;;;;;;;;;;;6.99;48.24;100140.28;4409426;32;19992;-76
2022/03/05 02:13:26;;;;;;;;;;;;;;;6.95;48.33;100143.53;4403919;32;20000;-76
2022/03/05 02:15:53;;;;;;;;;;;;;;;6.97;48.37;100147.06;4403740;32;19982;-76
2022/03/05 02:18:20;;;;;;;;;;;;;;;6.97;48.52;100147.06;4401331;32;20009;-76
2022/03/05 02:20:48;;;;;;;;;;;;;;;6.97;48.44;100141.03;4418543;32;19994;-77
2022/03/05 02:23:16;;;;;;;;;;;;;;;7.10;48.13;100144.91;4400114;32;20040;-76
2022/03/05 02:25:52;;;;;;;;;;;;;;;7.01;48.21;100147.16;4402728;32;20330;-76
2022/03/05 02:28:20;;;;;;;;;;;;;;;6.96;48.20;100155.59;4404528;32;19982;-76
2022/03/05 02:30:46;;;;;;;;;;;;;;;7.06;47.94;100150.78;4399962;32;20668;-76
2022/03/05 02:33:13;;;;;;;;;;;;;;;6.92;48.28;100148.59;4399883;32;19975;-75
2022/03/05 02:35:43;;;;;;;;;;;;;;;6.90;48.27;100157.09;4384695;32;20860;-76
2022/03/05 02:38:11;;;;;;;;;;;;;;;6.99;47.97;100155.72;4385061;32;19994;-76
2022/03/05 02:40:38;;;;;;;;;;;;;;;6.92;48.28;100153.75;4392033;32;20012;-76
2022/03/05 02:43:05;;;;;;;;;;;;;;;6.93;48.11;100150.34;4397192;32;20386;-76
2022/03/05 02:45:32;;;;;;;;;;;;;;;6.81;48.44;100155.06;4394888;32;20041;-76
2022/03/05 02:48:00;;;;;;;;;;;;;;;6.78;48.27;100157.50;4389537;32;19986;-76
2022/03/05 02:50:27;;;;;;;;;;;;;;;6.73;48.17;100159.94;4384009;32;19987;-76
2022/03/05 02:52:54;;;;;;;;;;;;;;;6.86;47.97;100156.09;4384390;32;19978;-76
2022/03/05 02:55:21;;;;;;;;;;;;;;;6.89;47.74;100161.38;4384515;32;19990;-77
2022/03/05 02:57:48;;;;;;;;;;;;;;;6.72;48.07;100154.72;4383368;32;19982;-76
2022/03/05 03:00:17;;;;;;;;;;;;;;;6.47;49.05;100153.78;4384801;32;19998;-76
2022/03/05 03:02:47;;;;;;;;;;;;;;;6.85;47.60;100156.91;4384826;32;19994;-76
2022/03/05 03:05:14;;;;;;;;;;;;;;;6.86;47.65;100158.69;4384697;32;20045;-75
2022/03/05 03:07:41;;;;;;;;;;;;;;;6.78;47.76;100154.06;4384757;32;20029;-76
2022/03/05 03:10:08;;;;;;;;;;;;;;;6.86;47.48;100153.53;4393538;32;20674;-76
2022/03/05 03:12:35;;;;;;;;;;;;;;;6.83;47.64;100152.50;4384397;32;19989;-75
2022/03/05 03:15:03;;;;;;;;;;;;;;;7.01;47.59;100149.72;4384778;32;20046;-76
2022/03/05 03:17:30;;;;;;;;;;;;;;;6.79;48.13;100150.66;4388807;32;20053;-75
2022/03/05 03:19:57;;;;;;;;;;;;;;;6.64;48.07;100158.72;4419082;32;19978;-77
2022/03/05 03:22:24;;;;;;;;;;;;;;;6.56;48.64;100160.13;4399385;32;20000;-76
2022/03/05 03:24:50;;;;;;;;;;;;;;;6.61;48.34;100156.03;4401618;32;20009;-77
2022/03/05 03:27:17;;;;;;;;;;;;;;;6.64;48.16;100157.00;4406258;32;19986;-77
2022/03/05 03:29:44;;;;;;;;;;;;;;;6.57;48.29;100156.72;4399474;32;19977;-77
2022/03/05 03:32:11;;;;;;;;;;;;;;;6.40;48.98;100151.81;4399911;32;20333;-76
2022/03/05 03:34:38;;;;;;;;;;;;;;;6.50;48.71;100156.47;4405981;32;19985;-76
2022/03/05 03:37:05;;;;;;;;;;;;;;;6.47;49.16;100158.94;4401036;32;20021;-76
2022/03/05 03:39:32;;;;;;;;;;;;;;;6.37;49.19;100162.00;4399855;32;19973;-77
2022/03/05 03:41:59;;;;;;;;;;;;;;;6.63;48.31;100155.25;4405906;32;20334;-77
2022/03/05 03:44:25;;;;;;;;;;;;;;;6.55;48.38;100155.81;4404432;32;20115;-76
2022/03/05 03:46:53;;;;;;;;;;;;;;;6.56;48.42;100152.41;4410834;32;20311;-76
2022/03/05 03:49:20;;;;;;;;;;;;;;;6.25;49.34;100151.22;4406355;32;20044;-76
2022/03/05 03:51:47;;;;;;;;;;;;;;;6.34;49.57;100151.59;4406294;32;19973;-77
2022/03/05 03:54:14;;;;;;;;;;;;;;;6.28;49.43;100161.63;4400474;32;20312;-76
2022/03/05 03:56:41;;;;;;;;;;;;;;;6.31;49.35;100161.75;4399736;32;20029;-76
2022/03/05 03:59:08;;;;;;;;;;;;;;;6.48;48.49;100158.16;4418285;32;20030;-76
2022/03/05 04:01:35;;;;;;;;;;;;;;;6.50;48.60;100153.91;4401202;32;19997;-77
2022/03/05 04:04:02;;;;;;;;;;;;;;;6.27;49.43;100149.59;4413893;32;19982;-76
2022/03/05 04:08:41;;;;;;;;;;;;;;;6.20;49.80;100152.78;4418155;32;19990;-76
2022/03/05 04:09:15;;;;;;;;;;;;;;;6.15;50.14;100149.13;4426583;32;20004;-76
2022/03/05 04:11:42;;;;;;;;;;;;;;;6.42;49.19;100155.34;4431013;32;19985;-76
2022/03/05 04:14:09;;;;;;;;;;;;;;;6.38;48.97;100161.19;4426296;32;19992;-76
2022/03/05 04:16:37;;;;;;;;;;;;;;;6.25;49.39;100157.28;4416363;32;20068;-76
2022/03/05 04:19:03;;;;;;;;;;;;;;;6.22;49.38;100161.41;4422514;32;19990;-76
2022/03/05 04:21:30;;;;;;;;;;;;;;;6.27;49.08;100167.59;4417726;32;19978;-76
2022/03/05 04:23:57;;;;;;;;;;;;;;;6.29;49.03;100168.56;4416026;32;19997;-77
2022/03/05 04:26:24;;;;;;;;;;;;;;;6.55;47.76;100172.09;4431659;32;19973;-77
2022/03/05 04:28:51;;;;;;;;;;;;;;;6.45;47.89;100173.47;4426932;32;19994;-76
2022/03/05 04:31:18;;;;;;;;;;;;;;;6.35;47.84;100173.94;4426438;32;19982;-76
2022/03/05 04:33:45;;;;;;;;;;;;;;;6.15;47.99;100169.69;4416170;32;19981;-76
2022/03/05 04:36:12;;;;;;;;;;;;;;;6.17;47.71;100173.22;4416513;32;20373;-77
2022/03/05 04:38:39;;;;;;;;;;;;;;;6.36;47.21;100177.38;4417253;32;20020;-76
2022/03/05 04:41:05;;;;;;;;;;;;;;;6.22;47.24;100182.87;4423144;32;19989;-76
2022/03/05 04:43:32;;;;;;;;;;;;;;;6.38;47.13;100189.47;4419988;32;20166;-76
2022/03/05 04:45:59;;;;;;;;;;;;;;;6.13;47.53;100189.34;4420508;32;20019;-76
2022/03/05 04:48:26;;;;;;;;;;;;;;;5.67;48.56;100185.75;4418002;32;19981;-76
2022/03/05 04:50:53;;;;;;;;;;;;;;;5.45;49.44;100186.53;4423046;32;20401;-76
2022/03/05 04:53:21;;;;;;;;;;;;;;;5.76;48.61;100187.81;4416189;32;19982;-76
2022/03/05 04:55:48;;;;;;;;;;;;;;;6.00;48.03;100181.12;4416374;32;20768;-76
2022/03/05 04:58:17;;;;;;;;;;;;;;;6.23;47.67;100183.72;4424962;32;19989;-76
2022/03/05 05:00:43;;;;;;;;;;;;;;;5.95;48.52;100177.50;4415211;32;20662;-76
2022/03/05 05:03:10;;;;;;;;;;;;;;;6.20;47.96;100183.63;4416212;32;20026;-75
2022/03/05 05:05:38;;;;;;;;;;;;;;;6.18;48.28;100180.09;4416452;32;20057;-76
2022/03/05 05:08:05;;;;;;;;;;;;;;;6.24;47.99;100183.78;4416359;32;19996;-75
2022/03/05 05:10:31;;;;;;;;;;;;;;;6.27;47.80;100183.91;4415694;32;20354;-75
2022/03/05 05:12:58;;;;;;;;;;;;;;;6.32;48.03;100184.09;4424033;32;20088;-76
2022/03/05 05:15:25;;;;;;;;;;;;;;;6.34;47.70;100191.84;4414485;32;20364;-76
2022/03/05 05:17:52;;;;;;;;;;;;;;;6.35;47.59;100194.50;4417852;32;19973;-76
2022/03/05 05:20:19;;;;;;;;;;;;;;;6.49;47.83;100193.31;4422895;32;19978;-75
2022/03/05 05:22:45;;;;;;;;;;;;;;;6.49;47.47;100197.59;4416433;32;20008;-76
2022/03/05 05:25:12;;;;;;;;;;;;;;;6.44;47.79;100196.53;4372720;32;19990;-76
2022/03/05 05:27:39;;;;;;;;;;;;;;;6.36;47.83;100200.50;4385624;32;19999;-76
2022/03/05 05:30:07;;;;;;;;;;;;;;;6.50;47.41;100200.19;4384241;32;19993;-76
2022/03/05 05:32:33;;;;;;;;;;;;;;;6.34;47.51;100197.88;4378909;32;20268;-76
2022/03/05 05:35:00;;;;;;;;;;;;;;;6.30;47.68;100201.12;4370377;32;20037;-76
2022/03/05 05:37:27;;;;;;;;;;;;;;;6.26;47.26;100204.41;4370270;32;19991;-76
2022/03/05 05:39:54;;;;;;;;;;;;;;;6.20;47.46;100204.19;4370656;32;19979;-75
2022/03/05 05:42:22;;;;;;;;;;;;;;;6.03;47.79;100206.97;4381580;32;20005;-76
2022/03/05 05:44:49;;;;;;;;;;;;;;;6.25;47.33;100205.22;4389526;32;20009;-75
2022/03/05 05:47:16;;;;;;;;;;;;;;;6.40;46.54;100203.25;4370460;32;20017;-75
2022/03/05 05:49:43;;;;;;;;;;;;;;;6.41;46.90;100202.41;4370104;32;20691;-75
2022/03/05 05:52:10;;;;;;;;;;;;;;;6.46;46.96;100208.62;4371613;32;19986;-75
2022/03/05 05:54:39;;;;;;;;;;;;;;;6.36;47.42;100214.25;4377091;32;20015;-75
2022/03/05 05:57:06;;;;;;;;;;;;;;;6.32;47.10;100214.94;4369815;32;20363;-75
2022/03/05 05:59:33;;;;;;;;;;;;;;;6.51;46.72;100207.13;4370300;32;20046;-75
2022/03/05 06:02:00;;;;;;;;;;;;;;;6.55;46.83;100208.09;4375930;32;19979;-75
2022/03/05 06:04:27;;;;;;;;;;;;;;;6.66;47.01;100216.22;4371899;32;20045;-74
2022/03/05 06:06:54;;;;;;;;;;;;;;;6.66;46.65;100217.09;4372340;32;19993;-75
2022/03/05 06:09:21;;;;;;;;;;;;;;;6.55;47.11;100223.53;4384178;32;19969;-75
2022/03/05 06:11:48;;;;;;;;;;;;;;;6.49;47.13;100223.31;4415347;32;20783;-75
2022/03/05 06:14:15;;;;;;;;;;;;;;;6.72;46.04;100226.75;4415992;32;19996;-74
2022/03/05 06:16:42;;;;;;;;;;;;;;;6.56;46.61;100232.12;4418557;32;19978;-74
2022/03/05 06:19:09;;;;;;;;;;;;;;;6.76;46.30;100228.59;4420650;32;19978;-75
2022/03/05 06:21:37;;;;;;;;;;;;;;;6.92;46.35;100236.09;4421159;32;20282;-75
2022/03/05 06:24:04;;;;;;;;;;;;;;;6.89;46.26;100235.97;4415581;32;19989;-75
2022/03/05 06:26:31;;;;;;;;;;;;;;;6.87;46.36;100241.88;4425998;32;19986;-75
2022/03/05 06:28:58;;;;;;;;;;;;;;;6.73;47.02;100247.41;4417647;32;19985;-75
2022/03/05 06:31:25;;;;;;;;;;;;;;;6.72;46.60;100249.91;4433153;32;20080;-74
2022/03/05 06:33:53;;;;;;;;;;;;;;;6.74;47.12;100248.28;4417047;32;20000;-74
2022/03/05 06:36:19;;;;;;;;;;;;;;;6.84;46.99;100247.78;4422103;32;20004;-74
2022/03/05 06:38:46;;;;;;;;;;;;;;;7.02;46.32;100246.72;4415084;32;20037;-74
2022/03/05 06:41:13;;;;;;;;;;;;;;;7.10;46.00;100255.59;4415674;32;19981;-74
2022/03/05 06:43:40;;;;;;;;;;;;;;;7.09;45.74;100244.44;4421592;32;20038;-74
2022/03/05 06:46:07;;;;;;;;;;;;;;;6.57;47.07;100246.72;4420576;32;20068;-74
2022/03/05 06:48:34;;;;;;;;;;;;;;;6.79;47.14;100249.31;4415259;32;20012;-74
2022/03/05 06:51:01;;;;;;;;;;;;;;;6.92;46.58;100251.53;4415794;32;20004;-75
2022/03/05 06:53:28;;;;;;;;;;;;;;;6.98;46.30;100248.28;4423578;32;19989;-74
2022/03/05 06:55:55;;;;;;;;;;;;;;;6.72;46.50;100252.47;4440757;32;19999;-74
2022/03/05 06:58:21;;;;;;;;;;;;;;;7.11;45.59;100252.19;4414738;32;19978;-74
2022/03/05 07:00:50;;;;;;;;;;;;;;;6.92;46.33;100251.53;4416746;32;20039;-75
2022/03/05 07:03:17;;;;;;;;;;;;;;;7.10;45.28;100250.44;4396736;32;783275;-73
2022/03/05 07:05:44;;;;;;;;;;;;;;;7.08;45.36;100257.22;4427349;32;20281;-74
2022/03/05 07:08:10;;;;;;;;;;;;;;;6.96;45.69;100253.41;4420564;32;20305;-74
2022/03/05 07:10:38;;;;;;;;;;;;;;;7.13;44.19;100250.56;4427777;32;19989;-74
2022/03/05 07:13:04;;;;;;;;;;;;;;;7.10;44.36;100250.44;4421634;32;19982;-74
2022/03/05 07:15:31;;;;;;;;;;;;;;;7.10;44.05;100260.75;4422406;32;19985;-74
2022/03/05 07:17:58;;;;;;;;;;;;;;;7.34;43.04;100260.75;4415296;32;19974;-73
2022/03/05 07:20:25;;;;;;;;;;;;;;;7.52;44.68;100263.09;4414975;32;20709;-73
2022/03/05 07:22:52;;;;;;;;;;;;;;;7.55;43.46;100255.47;4414419;32;20366;-74
2022/03/05 07:25:18;;;;;;;;;;;;;;;7.29;43.76;100255.44;4415621;32;20021;-74
2022/03/05 07:27:45;;;;;;;;;;;;;;;6.84;44.22;100263.22;4413293;32;19986;-76
2022/03/05 07:30:12;;;;;;;;;;;;;;;7.04;43.19;100257.94;4414344;32;19978;-74
2022/03/05 07:32:39;;;;;;;;;;;;;;;7.06;42.36;100261.47;4415985;32;20622;-74
2022/03/05 07:35:06;;;;;;;;;;;;;;;7.58;42.20;100255.59;4421099;32;20290;-74
2022/03/05 07:37:33;;;;;;;;;;;;;;;7.79;41.92;100266.63;4416900;32;19996;-74
2022/03/05 07:40:00;;;;;;;;;;;;;;;7.77;42.92;100268.28;4434351;32;20312;-74
2022/03/05 07:42:26;;;;;;;;;;;;;;;7.85;43.17;100266.84;4416565;32;20024;-74
2022/03/05 07:44:54;;;;;;;;;;;;;;;7.85;42.76;100272.00;4423192;32;20044;-74
2022/03/05 07:47:21;;;;;;;;;;;;;;;8.01;42.49;100272.50;4424284;32;20303;-76
2022/03/05 07:49:51;;;;;;;;;;;;;;;8.01;42.02;100275.06;4422873;32;20036;-74
2022/03/05 07:52:18;;;;;;;;;;;;;;;8.03;43.20;100270.84;4409299;32;20357;-75
2022/03/05 07:54:45;;;;;;;;;;;;;;;8.13;42.62;100262.59;4416775;32;19978;-73
2022/03/05 07:57:12;;;;;;;;;;;;;;;8.21;41.82;100271.47;4424883;32;20319;-75
2022/03/05 07:59:39;;;;;;;;;;;;;;;8.22;41.59;100277.50;4416333;32;20327;-75
2022/03/05 08:02:06;;;;;;;;;;;;;;;8.23;41.41;100285.31;4429980;32;19986;-75
2022/03/05 08:04:34;;;;;;;;;;;;;;;8.24;42.34;100287.03;4423471;32;19990;-74
2022/03/05 08:07:21;;;;;;;;;;;;;;;8.49;40.89;100288.75;4415497;32;20020;-74
2022/03/05 08:09:49;;;;;;;;;;;;;;;8.59;40.12;100289.91;4416267;32;20024;-74
2022/03/05 08:12:16;;;;;;;;;;;;;;;8.10;41.62;100288.28;4419412;32;20385;-74
2022/03/05 08:14:44;;;;;;;;;;;;;;;8.11;41.51;100290.06;4406073;32;20430;-74
2022/03/05 08:17:12;;;;;;;;;;;;;;;8.50;40.33;100285.31;4420446;32;20345;-74
2022/03/05 08:19:51;;;;;;;;;;;;;;;8.59;40.69;100279.59;4429702;32;20056;-74
2022/03/05 08:22:23;;;;;;;;;;;;;;;8.31;41.31;100288.97;4429764;32;19997;-74
2022/03/05 08:24:50;;;;;;;;;;;;;;;8.24;41.20;100281.88;4424549;32;20046;-73
2022/03/05 08:27:16;;;;;;;;;;;;;;;8.13;41.10;100283.22;4415804;32;20441;-74
2022/03/05 08:29:43;;;;;;;;;;;;;;;8.37;40.38;100284.03;4421233;32;20053;-74
2022/03/05 08:32:11;;;;;;;;;;;;;;;8.51;40.40;100286.19;4418518;32;20272;-75
2022/03/05 08:34:38;;;;;;;;;;;;;;;8.63;40.70;100291.75;4415829;32;20032;-75
2022/03/05 08:37:05;;;;;;;;;;;;;;;8.87;40.63;100294.22;4423700;32;19992;-74
2022/03/05 08:39:32;;;;;;;;;;;;;;;8.82;40.85;100294.06;4417487;32;20309;-74
2022/03/05 08:41:59;;;;;;;;;;;;;;;8.88;40.11;100297.66;4422918;32;19995;-74
2022/03/05 08:44:26;;;;;;;;;;;;;;;8.97;40.25;100297.94;4431227;32;19994;-75
2022/03/05 08:46:52;;;;;;;;;;;;;;;8.84;40.76;100296.69;4423923;32;19981;-74
2022/03/05 08:49:19;;;;;;;;;;;;;;;8.81;40.34;100296.59;4415956;32;20377;-75
2022/03/05 08:51:48;;;;;;;;;;;;;;;8.57;40.88;100299.28;4419290;32;19977;-74
2022/03/05 08:54:25;;;;;;;;;;;;;;;8.73;41.21;100298.94;4420623;32;19994;-75
2022/03/05 08:56:52;;;;;;;;;;;;;;;8.67;40.50;100303.91;4426870;32;20558;-74
2022/03/05 08:59:19;;;;;;;;;;;;;;;8.69;40.73;100301.37;4416069;32;19986;-74
2022/03/05 09:01:46;;;;;;;;;;;;;;;8.96;40.07;100296.16;4415276;32;19986;-74
2022/03/05 09:04:14;;;;;;;;;;;;;;;8.83;40.46;100300.97;4417695;32;20397;-75
2022/03/05 09:06:40;;;;;;;;;;;;;;;8.87;40.01;100296.78;4422383;32;19970;-74
2022/03/05 09:09:07;;;;;;;;;;;;;;;8.78;40.50;100297.38;4416556;32;20319;-74
2022/03/05 09:11:37;;;;;;;;;;;;;;;8.72;40.91;100294.59;4415606;32;19982;-74
2022/03/05 09:14:04;;;;;;;;;;;;;;;8.95;40.20;100294.44;4418808;32;20354;-74
2022/03/05 09:16:31;;;;;;;;;;;;;;;9.01;39.73;100304.94;4420132;32;19978;-73
2022/03/05 09:18:58;;;;;;;;;;;;;;;8.77;39.59;100290.44;4430934;32;20480;-74
2022/03/05 09:21:25;;;;;;;;;;;;;;;8.80;39.15;100290.53;4428737;32;19977;-73
2022/03/05 09:23:52;;;;;;;;;;;;;;;8.98;39.23;100289.34;4431120;32;19996;-73
2022/03/05 09:26:19;;;;;;;;;;;;;;;9.24;39.20;100288.41;4426168;32;19978;-73
2022/03/05 09:28:46;;;;;;;;;;;;;;;9.10;37.46;100289.72;4421892;32;20347;-73
2022/03/05 09:31:14;;;;;;;;;;;;;;;9.08;36.68;100281.91;4415747;32;19973;-75
2022/03/05 09:33:41;;;;;;;;;;;;;;;9.40;36.30;100283.66;4415939;32;20856;-74
2022/03/05 09:36:08;;;;;;;;;;;;;;;9.50;35.93;100285.66;4424082;32;19970;-73
2022/03/05 09:38:35;;;;;;;;;;;;;;;9.78;35.61;100285.56;4415709;32;20029;-74
2022/03/05 09:41:04;;;;;;;;;;;;;;;9.88;34.60;100288.41;4417873;32;19974;-74
2022/03/05 09:43:30;;;;;;;;;;;;;;;9.69;34.68;100282.75;4424396;32;19982;-74
2022/03/05 09:45:58;;;;;;;;;;;;;;;9.91;35.40;100286.78;4433064;32;19981;-74
2022/03/05 09:48:26;;;;;;;;;;;;;;;9.87;35.09;100286.66;4442430;32;19992;-74
2022/03/05 09:50:53;;;;;;;;;;;;;;;10.01;34.67;100274.94;4431192;32;19992;-74
2022/03/05 09:53:22;;;;;;;;;;;;;;;10.00;35.69;100283.56;4431189;32;20368;-74
2022/03/05 09:55:49;;;;;;;;;;;;;;;10.25;34.51;100275.56;4415539;32;20331;-74
2022/03/05 09:58:36;;;;;;;;;;;;;;;10.52;32.87;100274.50;4415746;32;19989;-74
2022/03/05 10:01:04;;;;;;;;;;;;;;;10.46;32.98;100274.34;4415643;32;19992;-74
2022/03/05 10:03:41;;;;;;;;;;;;;;;10.68;31.41;100276.59;4424103;32;19984;-74
2022/03/05 10:06:24;;;;;;;;;;;;;;;10.16;31.75;100277.94;4415504;32;20728;-74
2022/03/05 10:08:51;;;;;;;;;;;;;;;10.16;33.16;100280.50;4426839;32;19978;-74
2022/03/05 10:11:19;;;;;;;;;;;;;;;10.09;32.12;100277.75;4424029;32;20070;-75
2022/03/05 10:13:45;;;;;;;;;;;;;;;10.15;33.06;100273.59;4415678;32;20042;-75
2022/03/05 10:16:22;;;;;;;;;;;;;;;9.96;33.93;100277.44;4419912;32;19970;-74
2022/03/05 10:18:50;;;;;;;;;;;;;;;10.29;32.54;100270.50;4418647;32;19994;-74
2022/03/05 10:21:17;;;;;;;;;;;;;;;10.56;31.98;100271.16;4415272;32;19978;-75
2022/03/05 10:23:47;;;;;;;;;;;;;;;10.50;32.73;100270.13;4421182;32;20133;-74
2022/03/05 10:26:15;;;;;;;;;;;;;;;10.32;32.62;100270.56;4417913;32;19966;-74
2022/03/05 10:28:44;;;;;;;;;;;;;;;10.58;33.06;100269.47;4415653;32;19989;-74
2022/03/05 10:31:11;;;;;;;;;;;;;;;10.95;31.68;100267.69;4418249;32;19985;-74
2022/03/05 10:33:38;;;;;;;;;;;;;;;10.89;31.02;100262.38;4420426;32;20042;-74
2022/03/05 10:36:05;;;;;;;;;;;;;;;10.82;32.14;100268.28;4415016;32;19974;-74
2022/03/05 10:38:41;;;;;;;;;;;;;;;10.51;36.71;100267.59;4418017;32;19986;-74
2022/03/05 10:41:08;;;;;;;;;;;;;;;10.73;33.71;100252.53;4420024;32;21157;-75
2022/03/05 10:43:35;;;;;;;;;;;;;;;10.50;33.68;100259.75;4430453;32;20484;-74
2022/03/05 10:46:02;;;;;;;;;;;;;;;10.70;34.70;100259.38;4426078;32;20035;-75
2022/03/05 10:48:33;;;;;;;;;;;;;;;11.37;31.57;100253.87;4423310;32;19979;-75
2022/03/05 10:51:04;;;;;;;;;;;;;;;11.25;30.22;100264.84;4421412;32;20027;-74
2022/03/05 10:53:37;;;;;;;;;;;;;;;11.43;30.63;100258.31;4417490;32;19966;-75
2022/03/05 10:56:19;;;;;;;;;;;;;;;11.17;30.42;100263.84;4426430;32;19978;-74
2022/03/05 10:59:06;;;;;;;;;;;;;;;11.27;29.49;100262.31;4416533;32;20006;-74
2022/03/05 11:01:33;;;;;;;;;;;;;;;11.18;29.24;100258.69;4420097;32;19982;-74
2022/03/05 11:04:00;;;;;;;;;;;;;;;11.08;29.07;100256.75;4430713;32;19989;-74
2022/03/05 11:06:27;;;;;;;;;;;;;;;10.18;33.87;100247.81;4424310;32;19974;-74
2022/03/05 11:08:54;;;;;;;;;;;;;;;10.96;30.87;100251.31;4415193;32;20307;-74
2022/03/05 11:11:22;;;;;;;;;;;;;;;11.03;30.43;100248.00;4418739;32;20057;-73
2022/03/05 11:13:49;;;;;;;;;;;;;;;11.30;29.93;100246.81;4421662;32;20377;-72
2022/03/05 11:16:16;;;;;;;;;;;;;;;10.96;29.12;100248.72;4428207;32;19996;-73
2022/03/05 11:18:43;;;;;;;;;;;;;;;10.94;29.76;100247.78;4433898;32;20322;-72
2022/03/05 11:21:10;;;;;;;;;;;;;;;11.10;30.32;100255.06;4431971;32;20023;-73
2022/03/05 11:23:37;;;;;;;;;;;;;;;11.10;31.20;100242.12;4427356;32;19982;-73
2022/03/05 11:26:07;;;;;;;;;;;;;;;11.31;30.03;100238.19;4428471;32;19969;-73
2022/03/05 11:28:44;;;;;;;;;;;;;;;11.44;28.74;100236.72;4434372;32;20024;-72
2022/03/05 11:31:22;;;;;;;;;;;;;;;11.03;29.23;100232.44;4417429;32;20379;-72
2022/03/05 11:33:50;;;;;;;;;;;;;;;11.27;28.96;100236.41;4376277;32;19982;-73
2022/03/05 11:36:27;;;;;;;;;;;;;;;11.36;28.62;100231.41;4386250;32;19978;-74
2022/03/05 11:39:13;;;;;;;;;;;;;;;10.79;29.61;100222.47;4405799;32;19990;-74
2022/03/05 11:41:54;;;;;;;;;;;;;;;11.18;28.83;100230.19;4410355;32;20378;-74
2022/03/05 11:44:22;;;;;;;;;;;;;;;11.14;30.20;100225.78;4393430;32;19999;-74
2022/03/05 11:46:50;;;;;;;;;;;;;;;11.21;29.23;100225.91;4431303;32;20319;-74
2022/03/05 11:49:17;;;;;;;;;;;;;;;11.13;29.34;100224.00;4436544;32;19997;-74
2022/03/05 11:51:56;;;;;;;;;;;;;;;11.04;30.08;100223.84;4416699;32;20010;-74
2022/03/05 11:54:25;;;;;;;;;;;;;;;11.34;30.08;100215.81;4417291;32;19997;-74
2022/03/05 11:57:10;;;;;;;;;;;;;;;11.15;29.77;100217.16;4424968;32;19996;-74
2022/03/05 11:59:38;;;;;;;;;;;;;;;11.51;29.18;100213.50;4432077;32;19973;-75
2022/03/05 12:02:05;;;;;;;;;;;;;;;11.21;30.18;100211.22;4432204;32;19992;-74
2022/03/05 12:04:32;;;;;;;;;;;;;;;11.16;30.46;100218.03;4423930;32;187076;-75
2022/03/05 12:07:03;;;;;;;;;;;;;;;11.46;29.15;100212.56;4423926;32;19970;-74
2022/03/05 12:09:34;;;;;;;;;;;;;;;11.58;28.96;100210.22;4416261;32;19992;-75
2022/03/05 12:12:02;;;;;;;;;;;;;;;11.51;29.13;100210.91;4429538;32;19981;-74
2022/03/05 12:14:47;;;;;;;;;;;;;;;11.26;28.69;100198.34;4434545;32;20030;-74
2022/03/05 12:17:19;;;;;;;;;;;;;;;11.47;29.50;100198.75;4420643;32;20668;-74
2022/03/05 12:19:45;;;;;;;;;;;;;;;11.64;28.99;100197.31;4431474;32;19982;-75
2022/03/05 12:22:13;;;;;;;;;;;;;;;11.37;29.66;100199.44;4427251;32;19981;-74
2022/03/05 12:24:41;;;;;;;;;;;;;;;11.49;29.67;100204.84;4427314;32;20001;-74
2022/03/05 12:27:15;;;;;;;;;;;;;;;11.82;28.50;100190.72;4416618;32;19986;-74
2022/03/05 12:29:47;;;;;;;;;;;;;;;11.45;29.30;100194.38;4423808;32;20037;-74
2022/03/05 12:32:14;;;;;;;;;;;;;;;11.60;28.80;100195.53;4416863;32;20043;-75
2022/03/05 12:34:41;;;;;;;;;;;;;;;11.44;29.33;100193.50;4416135;32;19989;-74
2022/03/05 12:37:08;;;;;;;;;;;;;;;11.55;28.90;100201.47;4417888;32;20701;-74
2022/03/05 12:39:42;;;;;;;;;;;;;;;11.31;29.63;100199.31;4417441;32;20047;-74
2022/03/05 12:42:09;;;;;;;;;;;;;;;11.36;29.11;100200.28;4438098;32;19993;-74
2022/03/05 12:44:37;;;;;;;;;;;;;;;11.02;29.21;100194.44;4425054;32;20506;-73
2022/03/05 12:47:04;;;;;;;;;;;;;;;10.92;29.92;100193.41;4419705;32;19981;-74
2022/03/05 12:49:31;;;;;;;;;;;;;;;11.14;30.58;100194.69;4424852;32;19988;-74